createdAt,value
2019-05-05T00:01:06.072Z,96.40
2019-05-05T00:03:55.015Z,96.70
2019-05-05T00:06:25.271Z,96.30
2019-05-05T00:08:55.300Z,96.30
2019-05-05T00:11:26.780Z,96.30
2019-05-05T00:13:58.482Z,96.20
2019-05-05T00:16:30.212Z,96.30
2019-05-05T00:19:00.388Z,96.60
2019-05-05T00:21:30.482Z,96.50
2019-05-05T00:24:00.620Z,96.50
2019-05-05T00:26:30.481Z,96.60
2019-05-05T00:29:00.557Z,96.40
2019-05-05T00:31:30.459Z,96.80
2019-05-05T00:34:01.608Z,96.70
2019-05-05T00:36:31.964Z,96.40
2019-05-05T00:39:01.787Z,96.40
2019-05-05T00:41:34.642Z,96.30
2019-05-05T00:44:05.135Z,96.40
2019-05-05T00:46:39.231Z,96.50
2019-05-05T00:49:09.320Z,96.40
2019-05-05T00:51:39.386Z,96.60
2019-05-05T00:54:09.280Z,96.70
2019-05-05T00:56:39.094Z,96.70
2019-05-05T00:59:10.828Z,96.80
2019-05-05T01:01:59.089Z,96.90
2019-05-05T01:04:30.791Z,97.00
2019-05-05T01:07:00.854Z,97.20
2019-05-05T01:09:34.418Z,97.10
2019-05-05T01:12:05.144Z,97.50
2019-05-05T01:14:34.955Z,97.40
2019-05-05T01:17:05.328Z,97.40
2019-05-05T01:19:35.255Z,97.30
2019-05-05T01:22:05.375Z,97.20
2019-05-05T01:24:36.565Z,97.10
2019-05-05T01:27:06.434Z,97.00
2019-05-05T01:29:36.547Z,97.30
2019-05-05T01:32:08.075Z,97.20
2019-05-05T01:34:39.535Z,97.10
2019-05-05T01:37:11.080Z,96.80
2019-05-05T01:39:42.662Z,96.90
2019-05-05T01:42:16.487Z,97.00
2019-05-05T01:44:46.297Z,97.30
2019-05-05T01:47:16.452Z,97.70
2019-05-05T01:49:46.563Z,97.80
2019-05-05T01:52:16.730Z,97.90
2019-05-05T01:54:46.539Z,97.80
2019-05-05T01:57:16.744Z,97.50
2019-05-05T01:59:46.754Z,97.60
2019-05-05T02:02:16.655Z,97.60
2019-05-05T02:04:46.599Z,97.60
2019-05-05T02:07:16.483Z,97.60
2019-05-05T02:09:46.376Z,97.30
2019-05-05T02:12:16.245Z,97.00
2019-05-05T02:14:46.309Z,96.70
2019-05-05T02:17:16.094Z,96.50
2019-05-05T02:19:46.073Z,96.30
2019-05-05T02:22:16.216Z,96.30
2019-05-05T02:24:46.263Z,96.30
2019-05-05T02:27:19.574Z,96.50
2019-05-05T02:30:06.576Z,96.50
2019-05-05T02:32:38.048Z,96.70
2019-05-05T02:35:10.249Z,96.90
2019-05-05T02:37:40.316Z,96.80
2019-05-05T02:40:15.688Z,96.90
2019-05-05T02:42:46.034Z,97.00
2019-05-05T02:45:20.590Z,96.90
2019-05-05T02:48:05.899Z,97.00
2019-05-05T02:51:00.105Z,97.00
2019-05-05T02:53:29.528Z,97.10
2019-05-05T02:56:04.166Z,97.30
2019-05-05T02:58:37.466Z,97.50
2019-05-05T03:01:13.974Z,97.60
2019-05-05T03:03:45.772Z,97.50
2019-05-05T03:06:15.847Z,97.30
2019-05-05T03:08:47.117Z,97.30
2019-05-05T03:11:18.107Z,97.50
2019-05-05T03:13:50.925Z,97.50
2019-05-05T03:16:23.768Z,97.60
2019-05-05T03:18:54.988Z,97.50
2019-05-05T03:21:25.905Z,97.30
2019-05-05T03:23:56.408Z,97.30
2019-05-05T03:26:26.567Z,97.50
2019-05-05T03:29:01.707Z,97.50
2019-05-05T03:31:34.929Z,97.60
2019-05-05T03:34:05.896Z,97.70
2019-05-05T03:36:35.518Z,97.90
2019-05-05T03:39:07.220Z,98.00
2019-05-05T03:41:38.822Z,98.10
2019-05-05T03:44:30.035Z,98.10
2019-05-05T03:47:00.415Z,98.10
2019-05-05T03:49:33.673Z,98.10
2019-05-05T03:52:04.855Z,98.00
2019-05-05T03:54:35.175Z,97.80
2019-05-05T03:57:08.221Z,97.60
2019-05-05T03:59:41.116Z,97.30
2019-05-05T04:02:23.361Z,97.20
2019-05-05T04:04:57.815Z,97.10
2019-05-05T04:07:27.997Z,97.00
2019-05-05T04:09:58.242Z,97.00
2019-05-05T04:12:28.114Z,97.00
2019-05-05T04:14:59.210Z,97.10
2019-05-05T04:17:33.764Z,97.00
2019-05-05T04:20:19.435Z,97.00
2019-05-05T04:22:49.316Z,97.00
2019-05-05T04:25:19.492Z,97.00
2019-05-05T04:27:49.543Z,96.90
2019-05-05T04:30:19.375Z,96.90
2019-05-05T04:32:49.446Z,97.00
2019-05-05T04:35:19.270Z,97.10
2019-05-05T04:37:49.403Z,97.00
2019-05-05T04:40:19.286Z,97.00
2019-05-05T04:42:49.358Z,96.90
2019-05-05T04:45:19.338Z,96.70
2019-05-05T04:47:50.813Z,96.60
2019-05-05T04:50:28.125Z,96.60
2019-05-05T04:52:59.820Z,96.50
2019-05-05T04:55:29.897Z,96.40
2019-05-05T04:57:59.711Z,96.40
2019-05-05T05:00:29.785Z,96.20
2019-05-05T05:03:17.406Z,95.60
2019-05-05T05:05:54.759Z,95.70
2019-05-05T05:08:24.820Z,95.80
2019-05-05T05:10:54.758Z,95.30
2019-05-05T05:13:24.876Z,95.20
2019-05-05T05:15:54.690Z,94.80
2019-05-05T05:18:24.505Z,94.60
2019-05-05T05:20:55.007Z,94.70
2019-05-05T05:23:25.019Z,94.20
2019-05-05T05:25:56.062Z,94.50
2019-05-05T05:28:26.133Z,94.50
2019-05-05T05:30:56.196Z,94.30
2019-05-05T05:33:26.002Z,94.00
2019-05-05T05:35:55.831Z,93.80
2019-05-05T05:38:25.648Z,93.20
2019-05-05T05:40:57.148Z,92.40
2019-05-05T05:43:44.822Z,91.80
2019-05-05T05:46:24.077Z,92.20
2019-05-05T05:49:04.617Z,92.10
2019-05-05T05:51:34.955Z,91.80
2019-05-05T05:54:04.834Z,91.80
2019-05-05T05:56:34.919Z,91.70
2019-05-05T05:59:04.823Z,91.70
2019-05-05T06:01:34.891Z,91.40
2019-05-05T06:04:04.787Z,91.00
2019-05-05T06:06:34.796Z,91.20
2019-05-05T06:09:06.416Z,90.20
2019-05-05T06:11:36.507Z,90.60
2019-05-05T06:14:07.500Z,90.60
2019-05-05T06:16:37.584Z,88.20
2019-05-05T06:19:10.169Z,86.10
2019-05-05T06:21:38.904Z,85.70
2019-05-05T06:24:08.736Z,86.50
2019-05-05T06:26:38.776Z,85.10
2019-05-05T06:29:08.986Z,82.40
2019-05-05T06:31:39.099Z,80.40
2019-05-05T06:34:08.928Z,81.20
2019-05-05T06:36:39.036Z,77.20
2019-05-05T06:39:09.168Z,73.60
2019-05-05T06:41:53.913Z,68.20
2019-05-05T06:44:34.470Z,71.40
2019-05-05T06:47:06.256Z,70.30
2019-05-05T06:49:36.400Z,59.10
2019-05-05T06:52:06.345Z,56.80
2019-05-05T06:54:36.219Z,54.50
2019-05-05T06:57:06.308Z,51.70
2019-05-05T06:59:36.127Z,48.90
2019-05-05T07:02:06.235Z,45.50
2019-05-05T07:04:36.366Z,44.00
2019-05-05T07:07:06.579Z,43.80
2019-05-05T07:09:36.704Z,44.30
2019-05-05T07:12:06.820Z,39.80
2019-05-05T07:14:36.638Z,37.10
2019-05-05T07:17:06.754Z,37.00
2019-05-05T07:19:36.564Z,36.60
2019-05-05T07:22:06.456Z,38.90
2019-05-05T07:24:36.264Z,42.80
2019-05-05T07:27:06.507Z,45.00
2019-05-05T07:29:36.326Z,45.30
2019-05-05T07:32:06.548Z,45.00
2019-05-05T07:34:47.123Z,43.60
2019-05-05T07:37:16.944Z,39.10
2019-05-05T07:39:46.772Z,36.50
2019-05-05T07:42:16.602Z,32.80
2019-05-05T07:44:47.532Z,32.10
2019-05-05T07:47:18.568Z,30.90
2019-05-05T07:49:48.404Z,29.90
2019-05-05T07:52:18.251Z,30.00
2019-05-05T07:54:48.129Z,31.60
2019-05-05T07:57:18.288Z,34.80
2019-05-05T07:59:48.176Z,38.60
2019-05-05T08:02:18.320Z,44.10
2019-05-05T08:04:48.551Z,47.10
2019-05-05T08:07:19.542Z,50.10
2019-05-05T08:09:49.438Z,52.20
2019-05-05T08:12:19.260Z,55.00
2019-05-05T08:14:49.406Z,57.10
2019-05-05T08:17:26.858Z,57.40
2019-05-05T08:20:03.843Z,57.10
2019-05-05T08:22:33.970Z,55.80
2019-05-05T08:25:11.910Z,54.20
2019-05-05T08:27:53.742Z,49.20
2019-05-05T08:30:34.334Z,48.90
2019-05-05T08:33:04.637Z,48.80
2019-05-05T08:35:34.816Z,49.50
2019-05-05T08:38:06.098Z,49.40
2019-05-05T08:40:35.942Z,47.50
2019-05-05T08:43:06.035Z,44.70
2019-05-05T08:45:35.885Z,43.90
2019-05-05T08:48:05.800Z,38.00
2019-05-05T08:50:37.019Z,33.80
2019-05-05T08:53:08.563Z,30.90
2019-05-05T08:55:38.533Z,29.70
2019-05-05T08:58:08.774Z,28.40
2019-05-05T09:00:38.628Z,26.50
2019-05-05T09:03:08.577Z,26.90
2019-05-05T09:05:38.475Z,25.40
2019-05-05T09:08:08.555Z,26.80
2019-05-05T09:10:38.392Z,27.00
2019-05-05T09:13:08.510Z,25.60
2019-05-05T09:15:38.335Z,27.50
2019-05-05T09:18:08.173Z,28.30
2019-05-05T09:20:38.416Z,30.80
2019-05-05T09:23:08.504Z,35.40
2019-05-05T09:25:44.619Z,38.80
2019-05-05T09:28:20.417Z,41.40
2019-05-05T09:30:53.526Z,42.80
2019-05-05T09:33:24.734Z,43.50
2019-05-05T09:35:54.822Z,44.70
2019-05-05T09:38:24.687Z,45.00
2019-05-05T09:40:54.594Z,45.60
2019-05-05T09:43:24.727Z,50.00
2019-05-05T09:45:54.896Z,54.80
2019-05-05T09:48:24.776Z,58.40
2019-05-05T09:50:54.661Z,58.90
2019-05-05T09:53:27.280Z,59.00
2019-05-05T09:55:56.881Z,59.90
2019-05-05T09:58:27.104Z,58.80
2019-05-05T10:00:57.323Z,56.10
2019-05-05T10:03:27.509Z,52.80
2019-05-05T10:05:57.579Z,48.50
2019-05-05T10:08:27.651Z,42.40
2019-05-05T10:10:57.723Z,41.60
2019-05-05T10:13:27.576Z,39.80
2019-05-05T10:15:57.387Z,37.10
2019-05-05T10:18:27.585Z,35.00
2019-05-05T10:20:57.659Z,32.80
2019-05-05T10:23:29.496Z,32.30
2019-05-05T10:26:04.352Z,31.70
2019-05-05T10:28:34.567Z,31.70
2019-05-05T10:31:04.756Z,31.30
2019-05-05T10:33:36.597Z,33.00
2019-05-05T10:36:06.713Z,35.20
2019-05-05T10:38:38.456Z,37.90
2019-05-05T10:41:08.620Z,38.00
2019-05-05T10:43:38.467Z,39.10
2019-05-05T10:46:08.346Z,39.20
2019-05-05T10:48:38.512Z,36.80
2019-05-05T10:51:08.368Z,37.10
2019-05-05T10:53:38.182Z,35.50
2019-05-05T10:56:08.100Z,36.20
2019-05-05T10:58:38.182Z,42.00
2019-05-05T11:01:09.158Z,45.20
2019-05-05T11:03:39.121Z,46.30
2019-05-05T11:06:09.194Z,46.10
2019-05-05T11:08:39.149Z,47.50
2019-05-05T11:11:09.132Z,46.80
2019-05-05T11:13:39.012Z,45.80
2019-05-05T11:16:09.165Z,43.90
2019-05-05T11:18:39.883Z,44.40
2019-05-05T11:21:09.695Z,42.40
2019-05-05T11:23:39.789Z,42.60
2019-05-05T11:26:09.870Z,42.70
2019-05-05T11:28:39.703Z,42.70
2019-05-05T11:31:09.864Z,43.20
2019-05-05T11:33:57.515Z,43.70
2019-05-05T11:36:31.977Z,44.20
2019-05-05T11:39:04.031Z,45.80
2019-05-05T11:41:35.925Z,45.60
2019-05-05T11:44:06.230Z,45.20
2019-05-05T11:46:36.350Z,45.00
2019-05-05T11:49:06.476Z,47.50
2019-05-05T11:51:36.585Z,47.90
2019-05-05T11:54:06.706Z,48.60
2019-05-05T11:56:36.549Z,48.10
2019-05-05T11:59:06.357Z,45.60
2019-05-05T12:01:37.083Z,45.40
2019-05-05T12:04:08.947Z,45.30
2019-05-05T12:06:38.761Z,44.60
2019-05-05T12:09:11.000Z,44.80
2019-05-05T12:11:40.902Z,43.40
2019-05-05T12:14:14.305Z,44.30
2019-05-05T12:16:47.284Z,44.00
2019-05-05T12:19:17.448Z,42.80
2019-05-05T12:21:47.544Z,41.80
2019-05-05T12:24:19.299Z,40.60
2019-05-05T12:26:56.812Z,41.60
2019-05-05T12:29:27.683Z,41.30
2019-05-05T12:31:57.562Z,38.90
2019-05-05T12:34:27.382Z,39.20
2019-05-05T12:36:57.475Z,38.70
2019-05-05T12:39:27.307Z,36.00
2019-05-05T12:41:57.243Z,37.20
2019-05-05T12:44:29.183Z,39.50
2019-05-05T12:47:00.657Z,52.70
2019-05-05T12:49:30.724Z,58.00
2019-05-05T12:52:00.567Z,61.80
2019-05-05T12:54:30.667Z,63.60
2019-05-05T12:57:00.550Z,63.60
2019-05-05T12:59:30.384Z,60.80
2019-05-05T13:02:00.233Z,59.50
2019-05-05T13:04:30.067Z,56.40
2019-05-05T13:06:59.899Z,54.90
2019-05-05T13:09:29.743Z,53.10
2019-05-05T13:11:59.618Z,52.10
2019-05-05T13:14:29.573Z,53.10
2019-05-05T13:16:59.448Z,54.60
2019-05-05T13:19:31.353Z,54.60
2019-05-05T13:22:08.845Z,55.10
2019-05-05T13:24:46.560Z,53.90
2019-05-05T13:27:27.237Z,54.70
2019-05-05T13:29:57.067Z,52.80
2019-05-05T13:32:27.169Z,50.40
2019-05-05T13:34:58.388Z,50.10
2019-05-05T13:37:28.922Z,50.60
2019-05-05T13:39:58.730Z,49.80
2019-05-05T13:42:29.002Z,48.90
2019-05-05T13:45:06.655Z,49.80
2019-05-05T13:47:37.648Z,47.30
2019-05-05T13:50:10.508Z,47.80
2019-05-05T13:52:40.469Z,48.40
2019-05-05T13:55:10.515Z,46.30
2019-05-05T13:57:40.722Z,45.00
2019-05-05T14:00:14.071Z,45.10
2019-05-05T14:02:44.290Z,43.60
2019-05-05T14:05:14.773Z,44.60
2019-05-05T14:07:44.729Z,44.30
2019-05-05T14:10:15.491Z,44.40
2019-05-05T14:12:46.434Z,43.90
2019-05-05T14:15:17.496Z,46.20
2019-05-05T14:17:47.536Z,48.60
2019-05-05T14:20:18.866Z,49.70
2019-05-05T14:22:51.282Z,49.20
2019-05-05T14:25:24.226Z,47.10
2019-05-05T14:27:55.462Z,46.30
2019-05-05T14:30:40.611Z,43.60
2019-05-05T14:33:12.403Z,45.30
2019-05-05T14:35:46.912Z,44.40
2019-05-05T14:38:18.688Z,44.70
2019-05-05T14:40:49.008Z,44.20
2019-05-05T14:43:20.253Z,44.00
2019-05-05T14:45:50.069Z,45.40
2019-05-05T14:48:19.912Z,47.40
2019-05-05T14:50:50.115Z,49.80
2019-05-05T14:53:19.961Z,50.00
2019-05-05T14:55:49.854Z,50.20
2019-05-05T14:58:19.942Z,50.40
2019-05-05T15:00:49.783Z,50.60
2019-05-05T15:03:19.596Z,50.90
2019-05-05T15:05:54.775Z,50.60
2019-05-05T15:08:33.477Z,51.40
2019-05-05T15:11:23.244Z,52.20
2019-05-05T15:13:54.065Z,52.40
2019-05-05T15:16:25.394Z,52.40
2019-05-05T15:18:55.223Z,52.80
2019-05-05T15:21:25.993Z,50.80
2019-05-05T15:23:56.278Z,50.80
2019-05-05T15:26:26.103Z,50.90
2019-05-05T15:29:01.329Z,50.50
2019-05-05T15:31:28.162Z,50.60
2019-05-05T15:33:58.380Z,50.60
2019-05-05T15:36:29.685Z,50.00
2019-05-05T15:38:59.731Z,50.10
2019-05-05T15:41:29.880Z,49.80
2019-05-05T15:43:59.995Z,49.50
2019-05-05T15:46:31.041Z,50.70
2019-05-05T15:49:01.264Z,50.80
2019-05-05T15:51:31.480Z,51.00
2019-05-05T15:54:03.693Z,50.60
2019-05-05T15:56:34.101Z,50.90
2019-05-05T15:59:04.232Z,50.10
2019-05-05T16:01:34.531Z,50.30
2019-05-05T16:04:04.819Z,50.70
2019-05-05T16:06:35.157Z,50.70
2019-05-05T16:09:06.845Z,50.90
2019-05-05T16:11:38.565Z,51.20
2019-05-05T16:14:08.684Z,51.50
2019-05-05T16:16:40.447Z,51.60
2019-05-05T16:19:13.981Z,52.10
2019-05-05T16:21:48.261Z,52.60
2019-05-05T16:24:20.029Z,52.80
2019-05-05T16:26:50.242Z,52.80
2019-05-05T16:29:20.371Z,53.40
2019-05-05T16:31:50.477Z,53.50
2019-05-05T16:34:20.706Z,53.50
2019-05-05T16:36:50.581Z,53.00
2019-05-05T16:39:20.742Z,53.20
2019-05-05T16:41:50.591Z,52.90
2019-05-05T16:44:20.678Z,52.50
2019-05-05T16:46:50.891Z,52.60
2019-05-05T16:49:20.727Z,52.60
2019-05-05T16:52:00.698Z,51.30
2019-05-05T16:54:31.402Z,51.30
2019-05-05T16:57:01.474Z,52.20
2019-05-05T16:59:31.356Z,50.70
2019-05-05T17:02:01.484Z,49.40
2019-05-05T17:04:31.292Z,49.50
2019-05-05T17:07:01.462Z,49.00
2019-05-05T17:09:31.559Z,48.10
2019-05-05T17:12:10.351Z,48.10
2019-05-05T17:14:45.860Z,49.30
2019-05-05T17:17:20.215Z,49.50
2019-05-05T17:19:54.818Z,49.70
2019-05-05T17:22:26.681Z,50.10
2019-05-05T17:24:56.994Z,50.30
2019-05-05T17:27:27.217Z,51.00
2019-05-05T17:29:57.046Z,51.40
2019-05-05T17:32:26.856Z,51.40
2019-05-05T17:34:56.759Z,51.70
2019-05-05T17:37:26.569Z,52.00
2019-05-05T17:39:58.304Z,52.30
2019-05-05T17:42:43.938Z,52.30
2019-05-05T17:45:15.759Z,52.40
2019-05-05T17:47:47.296Z,52.90
2019-05-05T17:50:19.076Z,53.70
2019-05-05T17:53:11.887Z,54.10
2019-05-05T17:55:44.345Z,54.40
2019-05-05T17:58:14.287Z,54.90
2019-05-05T18:00:47.115Z,55.40
2019-05-05T18:03:18.451Z,55.70
2019-05-05T18:05:59.116Z,56.00
2019-05-05T18:08:39.772Z,56.50
2019-05-05T18:11:13.524Z,57.30
2019-05-05T18:13:47.900Z,57.90
2019-05-05T18:16:21.121Z,58.70
2019-05-05T18:18:50.958Z,59.00
2019-05-05T18:21:20.782Z,59.50
2019-05-05T18:23:50.612Z,59.70
2019-05-05T18:26:20.862Z,59.90
2019-05-05T18:28:50.989Z,60.30
2019-05-05T18:31:21.204Z,60.10
2019-05-05T18:33:51.321Z,60.60
2019-05-05T18:36:21.541Z,60.60
2019-05-05T18:38:53.668Z,59.60
2019-05-05T18:41:41.453Z,59.60
2019-05-05T18:44:25.489Z,59.10
2019-05-05T18:47:17.546Z,58.70
2019-05-05T18:49:45.391Z,59.00
2019-05-05T18:52:16.827Z,57.90
2019-05-05T18:54:46.648Z,57.80
2019-05-05T18:57:16.517Z,58.30
2019-05-05T18:59:46.339Z,59.20
2019-05-05T19:02:34.692Z,60.00
2019-05-05T19:05:24.917Z,61.00
2019-05-05T19:08:14.630Z,61.90
2019-05-05T19:10:44.710Z,62.40
2019-05-05T19:13:14.955Z,63.70
2019-05-05T19:15:44.841Z,63.60
2019-05-05T19:18:14.638Z,64.60
2019-05-05T19:20:49.174Z,65.20
2019-05-05T19:23:19.221Z,66.10
2019-05-05T19:25:49.095Z,66.80
2019-05-05T19:28:19.339Z,67.40
2019-05-05T19:30:49.400Z,67.80
2019-05-05T19:33:20.508Z,68.40
2019-05-05T19:35:54.822Z,68.90
2019-05-05T19:38:24.655Z,69.40
2019-05-05T19:40:56.331Z,69.80
2019-05-05T19:43:26.241Z,70.50
2019-05-05T19:45:56.432Z,71.00
2019-05-05T19:48:26.480Z,71.60
2019-05-05T19:50:58.272Z,72.20
2019-05-05T19:53:28.423Z,72.80
2019-05-05T19:55:58.652Z,73.40
2019-05-05T19:58:28.459Z,73.40
2019-05-05T20:00:59.908Z,74.10
2019-05-05T20:03:30.071Z,74.60
2019-05-05T20:05:59.998Z,74.80
2019-05-05T20:08:40.505Z,75.20
2019-05-05T20:11:01.907Z,75.60
2019-05-05T20:13:32.006Z,75.90
2019-05-05T20:16:06.767Z,76.10
2019-05-05T20:18:36.575Z,76.10
2019-05-05T20:21:07.435Z,76.30
2019-05-05T20:23:37.682Z,76.70
2019-05-05T20:26:07.763Z,77.10
2019-05-05T20:28:37.561Z,77.80
2019-05-05T20:31:08.523Z,78.00
2019-05-05T20:33:46.102Z,78.30
2019-05-05T20:36:17.582Z,78.40
2019-05-05T20:38:54.684Z,78.70
2019-05-05T20:41:24.961Z,79.20
2019-05-05T20:43:54.975Z,79.50
2019-05-05T20:46:25.170Z,79.90
2019-05-05T20:48:54.990Z,80.00
2019-05-05T20:51:24.803Z,80.10
2019-05-05T20:53:54.879Z,80.50
2019-05-05T20:56:25.040Z,80.50
2019-05-05T20:58:55.089Z,81.00
2019-05-05T21:01:24.915Z,81.20
2019-05-05T21:03:54.964Z,81.30
2019-05-05T21:06:25.075Z,82.50
2019-05-05T21:08:55.135Z,81.90
2019-05-05T21:11:24.943Z,82.40
2019-05-05T21:13:54.786Z,82.50
2019-05-05T21:16:25.569Z,82.70
2019-05-05T21:18:55.664Z,83.20
2019-05-05T21:21:27.098Z,83.30
2019-05-05T21:23:58.817Z,83.60
2019-05-05T21:26:48.724Z,83.80
2019-05-05T21:29:18.933Z,84.00
2019-05-05T21:31:48.771Z,84.40
2019-05-05T21:34:18.580Z,84.30
2019-05-05T21:36:48.717Z,84.90
2019-05-05T21:39:18.782Z,84.80
2019-05-05T21:41:48.601Z,85.00
2019-05-05T21:44:18.670Z,85.50
2019-05-05T21:46:48.497Z,85.60
2019-05-05T21:49:18.545Z,85.90
2019-05-05T21:51:55.983Z,86.30
2019-05-05T21:54:27.520Z,86.60
2019-05-05T21:57:02.010Z,86.60
2019-05-05T21:59:33.627Z,86.90
2019-05-05T22:02:04.049Z,87.70
2019-05-05T22:04:34.163Z,86.80
2019-05-05T22:07:04.370Z,86.50
2019-05-05T22:09:34.173Z,86.50
2019-05-05T22:12:05.442Z,86.60
2019-05-05T22:14:35.243Z,86.70
2019-05-05T22:17:05.334Z,87.30
2019-05-05T22:19:44.446Z,86.80
2019-05-05T22:22:15.729Z,86.80
2019-05-05T22:24:45.550Z,87.00
2019-05-05T22:27:15.588Z,87.40
2019-05-05T22:29:45.674Z,88.00
2019-05-05T22:32:15.734Z,88.10
2019-05-05T22:34:46.933Z,88.30
2019-05-05T22:37:16.744Z,88.70
2019-05-05T22:39:46.798Z,89.20
2019-05-05T22:42:16.617Z,89.60
2019-05-05T22:44:46.687Z,89.90
2019-05-05T22:47:16.550Z,90.10
2019-05-05T22:49:47.459Z,90.10
2019-05-05T22:52:17.574Z,90.20
2019-05-05T22:54:47.388Z,90.20
2019-05-05T22:57:17.192Z,90.30
2019-05-05T22:59:46.999Z,90.50
2019-05-05T23:02:18.445Z,90.50
2019-05-05T23:04:59.113Z,90.60
2019-05-05T23:07:30.942Z,90.80
2019-05-05T23:10:01.976Z,90.90
2019-05-05T23:12:32.145Z,91.10
2019-05-05T23:15:03.936Z,91.50
2019-05-05T23:17:35.186Z,91.20
2019-05-05T23:20:13.439Z,91.20
2019-05-05T23:23:00.597Z,91.70
2019-05-05T23:25:32.034Z,92.00
2019-05-05T23:28:03.977Z,92.30
2019-05-05T23:30:41.123Z,92.40
2019-05-05T23:33:04.914Z,92.40
2019-05-05T23:35:34.735Z,92.50
2019-05-05T23:38:04.637Z,92.50
2019-05-05T23:40:34.468Z,92.40
2019-05-05T23:43:04.541Z,92.60
2019-05-05T23:45:34.712Z,92.60
2019-05-05T23:48:04.531Z,92.60
2019-05-05T23:50:34.396Z,92.80
2019-05-05T23:53:04.277Z,92.80
2019-05-05T23:55:34.517Z,92.90
2019-05-05T23:58:05.408Z,93.20
